Time;durP1;ratioP1;P1;durP2;ratioP2;P2;SDS_P1;SDS_P2;PMS_P1;PMS_P2;Temp;Humidity;BMP_temperature;BMP_pressure;BME280_temperature;BME280_humidity;BME280_pressure;Samples;Min_cycle;Max_cycle;Signal;HPM_P1;HPM_P2
2023/08/14 00:01:20;;;;;;;2.88;0.90;;;17.60;72.40;;;;;;5007681;28;20515;-73
2023/08/14 00:03:47;;;;;;;3.08;1.30;;;17.60;72.50;;;;;;5007722;28;20193;-73
2023/08/14 00:06:14;;;;;;;3.22;1.20;;;17.50;72.40;;;;;;5007663;28;20788;-73
2023/08/14 00:08:41;;;;;;;3.53;1.30;;;17.50;72.60;;;;;;5009360;28;20128;-73
2023/08/14 00:11:09;;;;;;;3.13;1.20;;;17.50;72.70;;;;;;5008910;28;20047;-73
2023/08/14 00:13:50;;;;;;;5.40;1.40;;;17.50;72.70;;;;;;5007856;28;20047;-73
2023/08/14 00:16:17;;;;;;;3.20;1.00;;;17.50;72.60;;;;;;5006981;28;20129;-73
2023/08/14 00:18:44;;;;;;;2.60;1.20;;;17.50;72.60;;;;;;5009036;28;20054;-73
2023/08/14 00:21:12;;;;;;;2.20;0.70;;;17.40;72.60;;;;;;4990613;28;20050;-73
2023/08/14 00:23:39;;;;;;;2.17;0.50;;;17.40;72.60;;;;;;5007291;28;20583;-73
2023/08/14 00:26:05;;;;;;;1.90;0.43;;;17.40;72.70;;;;;;5008412;28;20042;-73
2023/08/14 00:28:34;;;;;;;2.47;0.52;;;17.40;72.70;;;;;;5008464;28;20117;-73
2023/08/14 00:31:01;;;;;;;2.45;0.88;;;17.30;72.70;;;;;;5023255;28;20057;-73
2023/08/14 00:33:28;;;;;;;3.60;1.17;;;17.30;72.80;;;;;;5022775;28;20054;-73
2023/08/14 00:35:55;;;;;;;4.00;1.20;;;17.20;73.00;;;;;;5022469;28;20046;-73
2023/08/14 00:38:22;;;;;;;3.25;1.40;;;17.20;73.10;;;;;;5005413;28;20160;-73
2023/08/14 00:40:51;;;;;;;2.83;1.40;;;17.20;73.20;;;;;;5023347;28;20062;-73
2023/08/14 00:43:18;;;;;;;3.28;1.20;;;17.20;73.30;;;;;;5023395;28;20054;-73
2023/08/14 00:45:47;;;;;;;3.28;1.30;;;17.00;73.40;;;;;;5023413;28;20066;-73
2023/08/14 00:48:15;;;;;;;3.50;1.20;;;17.00;73.60;;;;;;5008114;28;20062;-73
2023/08/14 00:50:43;;;;;;;4.43;1.45;;;17.00;73.70;;;;;;5023153;28;20887;-73
2023/08/14 00:53:13;;;;;;;4.13;1.60;;;17.00;73.70;;;;;;4990601;28;20042;-73
2023/08/14 00:55:40;;;;;;;3.65;1.60;;;17.00;73.70;;;;;;5023153;28;20491;-73
2023/08/14 00:58:08;;;;;;;3.33;1.38;;;16.90;73.80;;;;;;5023052;28;20051;-73
2023/08/14 01:00:35;;;;;;;3.20;1.50;;;16.90;73.90;;;;;;5022673;28;20081;-73
2023/08/14 01:03:05;;;;;;;4.00;1.52;;;16.80;74.10;;;;;;5022890;28;20085;-73
2023/08/14 01:05:32;;;;;;;3.92;1.55;;;16.80;74.30;;;;;;5006016;28;20061;-73
2023/08/14 01:07:59;;;;;;;3.53;1.45;;;16.80;74.30;;;;;;4988974;28;20141;-74
2023/08/14 01:10:36;;;;;;;4.32;1.70;;;16.80;74.40;;;;;;5005143;28;20962;-73
2023/08/14 01:13:11;;;;;;;3.23;1.50;;;16.70;74.50;;;;;;5022148;28;20042;-73
2023/08/14 01:15:44;;;;;;;3.42;1.35;;;16.70;74.50;;;;;;5021731;28;20058;-73
2023/08/14 01:18:17;;;;;;;3.95;1.50;;;16.70;74.50;;;;;;5021705;28;20076;-73
2023/08/14 01:20:57;;;;;;;4.65;1.35;;;16.70;74.40;;;;;;5021855;28;20051;-73
2023/08/14 01:23:34;;;;;;;3.10;1.45;;;16.70;74.40;;;;;;5008291;28;20059;-73
2023/08/14 01:26:02;;;;;;;2.70;1.00;;;16.60;74.30;;;;;;5006188;28;20050;-72
2023/08/14 01:28:30;;;;;;;3.17;0.98;;;16.60;74.30;;;;;;5007822;28;20158;-73
2023/08/14 01:30:58;;;;;;;2.75;1.00;;;16.60;74.20;;;;;;5006080;28;20166;-73
2023/08/14 01:33:25;;;;;;;3.20;1.40;;;16.60;74.20;;;;;;4990226;28;20146;-73
2023/08/14 01:35:57;;;;;;;3.50;1.10;;;16.60;74.10;;;;;;5006190;28;20042;-73
2023/08/14 01:38:30;;;;;;;2.60;1.00;;;16.60;74.10;;;;;;4990312;28;20186;-73
2023/08/14 01:41:10;;;;;;;3.35;1.10;;;16.60;74.00;;;;;;5006074;28;20914;-73
2023/08/14 01:43:41;;;;;;;3.33;0.90;;;16.60;73.90;;;;;;5039353;28;20082;-73
2023/08/14 01:46:11;;;;;;;3.00;1.20;;;16.50;73.90;;;;;;4989359;28;20116;-73
2023/08/14 01:48:41;;;;;;;3.45;0.93;;;16.50;73.90;;;;;;5010313;28;20121;-73
2023/08/14 01:51:10;;;;;;;3.37;1.50;;;16.50;73.90;;;;;;5042955;23;20046;-74
2023/08/14 01:53:38;;;;;;;3.05;0.82;;;16.40;73.80;;;;;;5045178;28;20053;-73
2023/08/14 01:56:05;;;;;;;5.53;1.50;;;16.40;73.80;;;;;;5029502;28;20050;-73
2023/08/14 01:58:34;;;;;;;2.80;0.95;;;16.40;73.90;;;;;;5013215;28;20042;-73
2023/08/14 02:01:02;;;;;;;3.65;1.00;;;16.40;74.00;;;;;;5029467;28;20065;-73
2023/08/14 02:03:29;;;;;;;3.07;1.30;;;16.40;74.10;;;;;;5029452;28;20096;-73
2023/08/14 02:06:00;;;;;;;2.50;0.90;;;16.40;74.20;;;;;;5029875;28;20520;-73
2023/08/14 02:08:28;;;;;;;3.28;1.35;;;16.30;74.40;;;;;;5031219;28;20061;-73
2023/08/14 02:10:55;;;;;;;2.78;1.10;;;16.20;74.50;;;;;;5029319;28;20050;-73
2023/08/14 02:13:23;;;;;;;3.55;1.15;;;16.20;74.50;;;;;;5013386;28;20046;-73
2023/08/14 02:15:52;;;;;;;2.90;1.30;;;16.10;74.60;;;;;;5013522;28;20812;-73
2023/08/14 02:18:20;;;;;;;4.88;1.70;;;16.10;74.70;;;;;;5013169;28;20551;-73
2023/08/14 02:20:49;;;;;;;3.20;1.70;;;16.00;74.90;;;;;;5013141;28;20045;-73
2023/08/14 02:23:16;;;;;;;4.30;1.80;;;16.00;75.00;;;;;;5029282;28;20054;-72
2023/08/14 02:25:43;;;;;;;4.05;1.98;;;16.00;75.20;;;;;;5013014;28;20570;-73
2023/08/14 02:28:11;;;;;;;4.63;1.80;;;15.90;75.40;;;;;;5013129;28;20748;-73
2023/08/14 02:30:41;;;;;;;3.42;1.70;;;15.90;75.50;;;;;;5029873;28;20046;-73
2023/08/14 02:33:09;;;;;;;3.38;1.50;;;15.90;75.60;;;;;;5013457;28;20561;-73
2023/08/14 02:35:37;;;;;;;4.55;1.42;;;15.90;75.70;;;;;;5013062;28;20125;-73
2023/08/14 02:38:08;;;;;;;4.82;0.98;;;15.90;75.60;;;;;;5012926;28;20326;-73
2023/08/14 02:40:36;;;;;;;4.37;0.97;;;15.90;75.60;;;;;;5029493;28;20054;-73
2023/08/14 02:43:06;;;;;;;3.95;1.23;;;15.90;75.50;;;;;;5029245;28;20050;-73
2023/08/14 02:45:33;;;;;;;3.30;1.60;;;15.90;75.40;;;;;;5029308;28;20157;-73
2023/08/14 02:48:00;;;;;;;3.35;1.55;;;15.80;75.40;;;;;;5012682;28;20132;-73
2023/08/14 02:50:30;;;;;;;3.47;1.52;;;15.90;75.50;;;;;;5012191;28;20054;-73
2023/08/14 02:52:57;;;;;;;3.90;1.63;;;15.80;75.50;;;;;;5028654;28;20050;-73
2023/08/14 02:55:26;;;;;;;2.60;0.90;;;15.80;75.60;;;;;;5029253;28;20121;-73
2023/08/14 02:57:52;;;;;;;3.30;1.00;;;15.80;75.70;;;;;;5012373;28;20050;-73
2023/08/14 03:00:20;;;;;;;3.55;1.50;;;15.80;75.60;;;;;;5030571;28;20133;-73
2023/08/14 03:02:47;;;;;;;3.63;1.30;;;15.80;75.70;;;;;;5028911;28;20514;-73
2023/08/14 03:05:14;;;;;;;3.10;1.50;;;15.80;75.70;;;;;;5028693;28;20540;-73
2023/08/14 03:07:43;;;;;;;3.53;1.48;;;15.70;75.70;;;;;;5028932;28;20077;-73
2023/08/14 03:10:10;;;;;;;4.82;1.98;;;15.70;75.90;;;;;;5012071;28;20092;-73
2023/08/14 03:12:37;;;;;;;4.32;2.40;;;15.60;75.90;;;;;;5028699;28;20172;-73
2023/08/14 03:15:05;;;;;;;4.50;2.40;;;15.60;76.00;;;;;;5028992;28;20679;-73
2023/08/14 03:17:32;;;;;;;4.63;2.30;;;15.60;76.20;;;;;;5011993;28;20116;-73
2023/08/14 03:20:03;;;;;;;4.40;2.45;;;15.60;76.30;;;;;;5012276;28;20165;-73
2023/08/14 03:22:30;;;;;;;6.05;2.50;;;15.60;76.40;;;;;;5012064;28;20073;-73
2023/08/14 03:24:59;;;;;;;4.97;2.50;;;15.60;76.30;;;;;;5011258;28;20054;-73
2023/08/14 03:27:26;;;;;;;4.65;2.20;;;15.60;76.40;;;;;;4992940;28;20054;-73
2023/08/14 03:29:56;;;;;;;4.83;2.43;;;15.60;76.20;;;;;;4992558;28;20077;-73
2023/08/14 03:32:23;;;;;;;4.03;2.08;;;15.60;76.20;;;;;;5008559;28;20058;-73
2023/08/14 03:34:51;;;;;;;4.70;2.50;;;15.60;76.10;;;;;;4992880;28;20053;-73
2023/08/14 03:37:20;;;;;;;5.65;2.55;;;15.60;76.10;;;;;;4992380;28;20870;-73
2023/08/14 03:39:47;;;;;;;4.88;2.85;;;15.60;76.20;;;;;;5008637;28;20046;-73
2023/08/14 03:42:16;;;;;;;5.80;2.97;;;15.60;76.20;;;;;;4992377;28;20097;-73
2023/08/14 03:44:43;;;;;;;4.28;2.45;;;15.60;76.20;;;;;;5008974;28;20133;-73
2023/08/14 03:47:10;;;;;;;4.25;2.22;;;15.60;76.30;;;;;;4991882;28;20054;-73
2023/08/14 03:49:38;;;;;;;3.63;2.03;;;15.60;76.40;;;;;;5008236;28;20050;-73
2023/08/14 03:52:05;;;;;;;3.85;1.90;;;15.60;76.60;;;;;;5007878;28;20058;-74
2023/08/14 03:54:34;;;;;;;4.93;2.90;;;15.60;76.60;;;;;;5022751;28;20053;-73
2023/08/14 03:57:01;;;;;;;6.32;2.97;;;15.50;76.60;;;;;;5027915;28;20049;-73
2023/08/14 03:59:29;;;;;;;5.30;2.95;;;15.50;76.80;;;;;;5015582;28;20152;-73
2023/08/14 04:01:58;;;;;;;5.13;3.05;;;15.50;76.80;;;;;;5011296;28;20137;-73
2023/08/14 04:04:26;;;;;;;5.45;3.60;;;15.50;76.90;;;;;;5027928;28;20050;-73
2023/08/14 04:06:54;;;;;;;5.93;3.10;;;15.50;77.00;;;;;;5029300;28;20050;-73
2023/08/14 04:09:21;;;;;;;6.05;3.50;;;15.40;77.00;;;;;;5028933;28;20129;-73
2023/08/14 04:11:49;;;;;;;7.65;3.50;;;15.40;77.20;;;;;;5028251;28;20081;-73
2023/08/14 04:14:16;;;;;;;5.60;3.50;;;15.40;77.30;;;;;;5029349;28;20104;-73
2023/08/14 04:16:45;;;;;;;6.20;3.65;;;15.40;77.30;;;;;;5029181;28;20168;-73
2023/08/14 04:19:13;;;;;;;5.97;3.83;;;15.40;77.50;;;;;;5029763;28;20050;-73
2023/08/14 04:21:40;;;;;;;6.35;3.85;;;15.40;77.50;;;;;;5007133;28;20047;-73
2023/08/14 04:24:08;;;;;;;8.93;4.10;;;15.40;77.30;;;;;;5015797;28;20047;-73
2023/08/14 04:26:37;;;;;;;6.85;4.00;;;15.40;77.50;;;;;;5027471;28;20103;-73
2023/08/14 04:29:06;;;;;;;6.03;3.90;;;15.40;77.50;;;;;;5010933;28;20515;-73
2023/08/14 04:31:34;;;;;;;5.40;3.90;;;15.40;77.70;;;;;;4999800;28;20052;-73
2023/08/14 04:34:03;;;;;;;6.50;3.67;;;15.40;77.80;;;;;;5010954;28;20053;-73
2023/08/14 04:36:32;;;;;;;6.40;4.20;;;15.40;77.90;;;;;;5028050;28;20068;-73
2023/08/14 04:38:59;;;;;;;8.95;5.20;;;15.40;77.90;;;;;;5010994;28;20050;-73
2023/08/14 04:41:27;;;;;;;7.57;4.07;;;15.40;77.80;;;;;;5010818;28;20081;-73
2023/08/14 04:43:54;;;;;;;9.13;4.50;;;15.30;77.80;;;;;;5010518;28;20046;-73
2023/08/14 04:46:30;;;;;;;9.43;5.55;;;15.30;78.00;;;;;;5010271;28;20057;-73
2023/08/14 04:48:59;;;;;;;8.48;4.97;;;15.30;78.10;;;;;;5027258;28;20053;-73
2023/08/14 04:51:28;;;;;;;9.80;5.63;;;15.40;78.10;;;;;;5026930;28;20137;-73
2023/08/14 04:53:56;;;;;;;11.65;6.40;;;15.40;78.60;;;;;;5027513;28;20512;-73
2023/08/14 04:56:24;;;;;;;10.87;6.23;;;15.40;78.80;;;;;;5027079;28;20136;-73
2023/08/14 04:58:52;;;;;;;10.25;6.18;;;15.40;79.30;;;;;;5028745;28;20546;-73
2023/08/14 05:01:20;;;;;;;9.75;5.60;;;15.40;79.60;;;;;;5010088;28;20502;-73
2023/08/14 05:03:51;;;;;;;8.57;5.68;;;15.40;79.80;;;;;;5009802;28;20054;-73
2023/08/14 05:06:18;;;;;;;11.85;6.47;;;15.40;79.60;;;;;;5009391;28;20717;-73
2023/08/14 05:08:47;;;;;;;10.40;6.50;;;15.40;79.70;;;;;;5009454;28;20154;-73
2023/08/14 05:11:14;;;;;;;10.43;6.50;;;15.40;80.00;;;;;;5009320;28;20472;-73
2023/08/14 05:13:44;;;;;;;9.32;6.07;;;15.40;80.30;;;;;;5009859;28;20196;-73
2023/08/14 05:16:11;;;;;;;11.02;5.82;;;15.50;80.70;;;;;;5009839;28;20516;-73
2023/08/14 05:18:39;;;;;;;9.63;6.30;;;15.50;80.40;;;;;;5026127;28;20050;-73
2023/08/14 05:21:06;;;;;;;12.07;7.00;;;15.50;80.80;;;;;;5026940;28;20046;-73
2023/08/14 05:23:33;;;;;;;11.35;6.63;;;15.50;81.00;;;;;;5031715;28;20054;-73
2023/08/14 05:26:02;;;;;;;10.48;6.30;;;15.60;81.20;;;;;;5030343;28;20052;-73
2023/08/14 05:28:29;;;;;;;11.90;6.72;;;15.60;81.70;;;;;;5030682;28;20050;-73
2023/08/14 05:30:56;;;;;;;11.93;6.65;;;15.60;81.90;;;;;;5031961;28;20054;-73
2023/08/14 05:33:23;;;;;;;12.23;6.63;;;15.60;81.90;;;;;;5032349;28;20519;-73
2023/08/14 05:35:50;;;;;;;10.85;6.28;;;15.60;82.10;;;;;;5030161;28;20053;-74
2023/08/14 05:38:17;;;;;;;11.52;7.20;;;15.70;82.40;;;;;;5031636;28;20054;-73
2023/08/14 05:40:44;;;;;;;10.93;7.20;;;15.80;82.50;;;;;;5031675;28;20053;-73
2023/08/14 05:43:37;;;;;;;12.48;7.47;;;15.80;82.80;;;;;;5030292;28;20528;-73
2023/08/14 05:46:06;;;;;;;12.73;7.20;;;15.90;83.20;;;;;;5031675;28;20053;-73
2023/08/14 05:48:36;;;;;;;12.25;7.22;;;16.00;83.80;;;;;;5024669;28;20060;-73
2023/08/14 05:51:03;;;;;;;11.18;7.10;;;16.00;83.60;;;;;;5020603;28;21640;-73
2023/08/14 05:53:30;;;;;;;16.63;7.80;;;16.00;83.50;;;;;;5018753;28;20047;-73
2023/08/14 05:55:57;;;;;;;12.15;7.10;;;16.10;83.70;;;;;;5020802;28;20050;-73
2023/08/14 05:58:24;;;;;;;12.43;7.43;;;16.10;83.60;;;;;;5020369;28;20054;-73
2023/08/14 06:00:53;;;;;;;12.55;6.68;;;16.20;83.70;;;;;;5019617;28;20046;-74
2023/08/14 06:03:20;;;;;;;12.23;7.18;;;16.20;83.60;;;;;;5013001;28;20046;-74
2023/08/14 06:05:48;;;;;;;11.20;7.03;;;16.30;83.60;;;;;;5010933;28;20122;-73
2023/08/14 06:08:15;;;;;;;11.18;7.32;;;16.30;83.80;;;;;;5017245;28;20535;-73
2023/08/14 06:10:42;;;;;;;14.90;7.30;;;16.40;83.70;;;;;;5014643;28;20077;-73
2023/08/14 06:13:09;;;;;;;10.70;7.00;;;16.40;83.80;;;;;;5030106;28;20109;-73
2023/08/14 06:15:36;;;;;;;11.45;7.10;;;16.40;83.90;;;;;;5021129;28;20066;-73
2023/08/14 06:18:05;;;;;;;13.10;7.65;;;16.40;83.90;;;;;;5024112;28;20054;-73
2023/08/14 06:20:32;;;;;;;12.35;7.45;;;16.40;83.90;;;;;;5022023;28;20143;-73
2023/08/14 06:22:59;;;;;;;12.20;7.47;;;16.50;84.10;;;;;;5025534;28;20616;-73
2023/08/14 06:25:29;;;;;;;13.27;7.15;;;16.50;84.20;;;;;;5013294;28;20076;-73
2023/08/14 06:27:56;;;;;;;11.88;7.13;;;16.50;84.10;;;;;;5022628;28;20538;-73
2023/08/14 06:30:24;;;;;;;11.68;7.40;;;16.60;84.10;;;;;;5023962;28;20058;-72
2023/08/14 06:32:52;;;;;;;13.00;7.35;;;16.60;84.30;;;;;;5021828;28;20050;-73
2023/08/14 06:35:20;;;;;;;12.57;7.03;;;16.70;84.20;;;;;;5015388;28;20050;-74
2023/08/14 06:37:47;;;;;;;12.00;7.05;;;16.70;84.30;;;;;;5020698;28;20065;-73
2023/08/14 06:40:15;;;;;;;12.07;6.68;;;16.70;84.20;;;;;;5015455;28;20080;-73
2023/08/14 06:42:42;;;;;;;12.70;7.57;;;16.70;84.50;;;;;;5017004;28;20046;-73
2023/08/14 06:45:10;;;;;;;13.02;7.70;;;16.80;84.50;;;;;;5016384;28;20050;-73
2023/08/14 06:47:44;;;;;;;13.60;7.83;;;16.80;84.50;;;;;;5000429;28;20054;-73
2023/08/14 06:50:12;;;;;;;11.43;7.57;;;16.90;84.50;;;;;;5027366;28;20046;-74
2023/08/14 06:52:40;;;;;;;11.63;6.82;;;16.90;84.60;;;;;;5021768;28;20049;-73
2023/08/14 06:55:08;;;;;;;12.68;7.70;;;16.90;84.50;;;;;;5015759;28;20241;-73
2023/08/14 06:57:35;;;;;;;12.70;7.43;;;16.90;84.60;;;;;;5021450;28;20058;-73
2023/08/14 07:00:06;;;;;;;12.43;7.40;;;17.00;84.60;;;;;;5013735;28;20090;-73
2023/08/14 07:02:34;;;;;;;13.68;7.20;;;17.00;84.70;;;;;;5020957;28;20054;-72
2023/08/14 07:05:01;;;;;;;11.93;7.40;;;17.00;84.60;;;;;;5002861;28;20050;-72
2023/08/14 07:07:29;;;;;;;14.15;7.90;;;17.00;84.70;;;;;;5000460;28;20104;-72
2023/08/14 07:09:58;;;;;;;11.60;6.90;;;17.10;84.70;;;;;;5022592;28;20503;-72
2023/08/14 07:12:25;;;;;;;10.60;6.73;;;17.10;84.70;;;;;;5025011;28;20114;-72
2023/08/14 07:14:52;;;;;;;14.68;7.25;;;17.20;84.70;;;;;;5017724;28;20230;-71
2023/08/14 07:17:19;;;;;;;10.95;7.60;;;17.20;84.70;;;;;;5016649;28;20133;-71
2023/08/14 07:19:46;;;;;;;12.93;7.47;;;17.20;84.70;;;;;;5040786;28;20065;-72
2023/08/14 07:22:13;;;;;;;12.05;7.22;;;17.20;84.70;;;;;;5016512;28;20587;-71
2023/08/14 07:24:40;;;;;;;11.70;7.27;;;17.30;84.80;;;;;;5020356;28;20174;-72
2023/08/14 07:27:08;;;;;;;13.10;7.53;;;17.40;84.90;;;;;;5019073;28;20054;-71
2023/08/14 07:29:35;;;;;;;14.02;8.00;;;17.40;85.00;;;;;;5015996;28;20058;-71
2023/08/14 07:32:02;;;;;;;12.93;7.40;;;17.50;85.10;;;;;;5018753;28;20050;-72
2023/08/14 07:34:30;;;;;;;13.38;6.88;;;17.50;85.10;;;;;;5019772;28;20074;-71
2023/08/14 07:36:57;;;;;;;9.60;5.80;;;17.50;85.50;;;;;;5020016;28;20058;-72
2023/08/14 07:39:24;;;;;;;12.23;6.45;;;17.60;85.20;;;;;;5017433;28;20424;-72
2023/08/14 07:41:50;;;;;;;11.57;6.60;;;17.70;85.60;;;;;;5036869;28;20058;-72
2023/08/14 07:44:20;;;;;;;13.45;6.68;;;17.80;85.30;;;;;;5015856;28;20081;-72
2023/08/14 07:46:47;;;;;;;9.52;6.28;;;17.80;85.30;;;;;;5013177;28;20046;-72
2023/08/14 07:49:15;;;;;;;10.10;6.50;;;17.90;85.20;;;;;;5010913;28;20058;-72
2023/08/14 07:51:42;;;;;;;11.00;6.13;;;18.00;85.10;;;;;;5025591;28;20042;-72
2023/08/14 07:54:09;;;;;;;10.57;5.72;;;18.00;85.20;;;;;;5020726;28;20129;-72
2023/08/14 07:56:36;;;;;;;11.70;6.40;;;18.10;85.10;;;;;;5026186;28;20057;-71
2023/08/14 07:59:05;;;;;;;9.90;5.65;;;18.20;85.00;;;;;;5003274;28;20081;-71
2023/08/14 08:01:37;;;;;;;11.63;5.80;;;18.20;84.80;;;;;;5018868;28;20133;-72
2023/08/14 08:04:05;;;;;;;9.60;5.38;;;18.30;84.60;;;;;;5023043;28;20129;-72
2023/08/14 08:06:32;;;;;;;10.23;5.03;;;18.40;84.40;;;;;;5009080;28;20081;-71
2023/08/14 08:08:59;;;;;;;8.93;4.72;;;18.40;84.20;;;;;;5017795;28;20050;-72
2023/08/14 08:11:28;;;;;;;7.45;4.85;;;18.50;84.00;;;;;;5017845;28;20056;-72
2023/08/14 08:13:55;;;;;;;9.43;4.47;;;18.50;84.00;;;;;;5018829;28;20136;-72
2023/08/14 08:16:22;;;;;;;9.30;4.50;;;18.60;83.90;;;;;;5017847;28;20129;-72
2023/08/14 08:18:51;;;;;;;7.38;4.65;;;18.70;83.90;;;;;;5014801;28;20155;-72
2023/08/14 08:21:18;;;;;;;9.57;4.72;;;18.70;83.90;;;;;;5022311;28;20507;-71
2023/08/14 08:23:45;;;;;;;11.65;5.13;;;18.80;83.70;;;;;;5017786;28;20046;-72
2023/08/14 08:26:12;;;;;;;7.53;4.23;;;18.90;83.70;;;;;;5018968;28;20361;-72
2023/08/14 08:28:39;;;;;;;9.45;5.50;;;18.90;83.50;;;;;;5000809;28;20049;-73
2023/08/14 08:31:06;;;;;;;9.55;5.15;;;19.00;83.60;;;;;;5016557;28;20053;-71
2023/08/14 08:33:33;;;;;;;8.57;5.03;;;19.00;83.60;;;;;;5016002;28;20464;-71
2023/08/14 08:36:01;;;;;;;9.10;5.38;;;19.10;83.40;;;;;;4996930;28;20066;-71
2023/08/14 08:38:32;;;;;;;9.73;4.40;;;19.20;83.20;;;;;;5012915;28;20098;-72
2023/08/14 08:41:02;;;;;;;8.73;4.35;;;19.30;83.30;;;;;;5011284;28;20042;-72
2023/08/14 08:43:32;;;;;;;7.68;3.65;;;19.40;81.90;;;;;;5018466;28;20050;-71
2023/08/14 08:46:03;;;;;;;8.40;3.45;;;19.50;81.10;;;;;;5017566;28;20056;-71
2023/08/14 08:48:34;;;;;;;10.55;3.47;;;19.60;80.30;;;;;;5024265;28;20042;-71
2023/08/14 08:51:04;;;;;;;8.37;3.37;;;19.70;79.20;;;;;;5018514;28;20046;-72
2023/08/14 08:53:32;;;;;;;7.78;3.53;;;19.70;78.80;;;;;;5039827;28;20046;-71
2023/08/14 08:55:59;;;;;;;7.38;3.30;;;19.90;78.70;;;;;;5001779;28;20645;-72
2023/08/14 08:58:27;;;;;;;8.05;3.40;;;19.90;78.20;;;;;;5020466;28;20060;-71
2023/08/14 09:00:55;;;;;;;7.82;3.72;;;20.00;78.20;;;;;;5021742;28;20050;-71
2023/08/14 09:03:23;;;;;;;7.47;3.17;;;20.00;78.00;;;;;;5020312;28;20056;-71
2023/08/14 09:05:51;;;;;;;8.13;4.00;;;20.00;78.00;;;;;;5024892;28;20055;-72
2023/08/14 09:08:19;;;;;;;8.60;3.55;;;20.00;77.80;;;;;;5014489;28;20137;-71
2023/08/14 09:10:46;;;;;;;10.93;3.72;;;20.10;77.30;;;;;;5027414;28;20038;-71
2023/08/14 09:13:15;;;;;;;8.70;3.17;;;20.10;76.90;;;;;;5015188;28;20587;-71
2023/08/14 09:15:43;;;;;;;8.23;3.40;;;20.20;76.90;;;;;;5010423;28;20046;-71
2023/08/14 09:18:10;;;;;;;7.72;3.22;;;20.30;76.70;;;;;;5037744;28;20100;-71
2023/08/14 09:20:39;;;;;;;9.80;3.40;;;20.30;76.50;;;;;;5022135;28;20885;-71
2023/08/14 09:23:11;;;;;;;10.95;3.53;;;20.40;75.90;;;;;;5002722;28;20049;-71
2023/08/14 09:25:41;;;;;;;6.13;3.00;;;20.50;75.20;;;;;;5036276;28;20506;-71
2023/08/14 09:28:09;;;;;;;9.00;3.00;;;20.50;75.10;;;;;;5010600;28;20100;-71
2023/08/14 09:30:37;;;;;;;7.45;2.70;;;20.50;74.90;;;;;;5017216;28;20053;-72
2023/08/14 09:33:07;;;;;;;7.85;3.15;;;20.60;75.00;;;;;;5026496;28;20743;-71
2023/08/14 09:35:35;;;;;;;7.80;2.53;;;20.60;75.10;;;;;;5013207;28;20551;-71
2023/08/14 09:38:03;;;;;;;8.40;2.33;;;20.70;75.00;;;;;;5008358;28;20192;-71
2023/08/14 09:40:31;;;;;;;7.07;2.13;;;20.80;74.00;;;;;;5008232;28;20713;-72
2023/08/14 09:42:59;;;;;;;7.40;2.50;;;20.80;73.70;;;;;;5008183;28;20114;-71
2023/08/14 09:45:29;;;;;;;5.75;2.50;;;20.80;72.70;;;;;;5012852;28;20050;-71
2023/08/14 09:48:00;;;;;;;6.18;2.50;;;20.90;72.50;;;;;;5019120;28;20050;-71
2023/08/14 09:50:29;;;;;;;5.28;2.03;;;20.90;72.50;;;;;;5021199;28;20050;-72
2023/08/14 09:52:58;;;;;;;6.17;2.37;;;20.90;72.50;;;;;;5017816;28;20057;-71
2023/08/14 09:55:27;;;;;;;5.03;2.05;;;21.00;72.30;;;;;;5019141;28;20056;-71
2023/08/14 09:57:55;;;;;;;5.55;1.80;;;21.00;72.20;;;;;;5021708;28;20057;-71
2023/08/14 10:00:24;;;;;;;6.95;2.17;;;21.00;71.40;;;;;;5018323;28;20078;-71
2023/08/14 10:02:53;;;;;;;6.22;2.22;;;21.10;71.30;;;;;;5017897;28;20050;-71
2023/08/14 10:05:21;;;;;;;5.27;2.00;;;21.10;71.90;;;;;;5026069;28;20061;-71
2023/08/14 10:07:50;;;;;;;6.82;1.70;;;21.10;71.50;;;;;;5027611;28;20092;-72
2023/08/14 10:10:19;;;;;;;5.40;2.00;;;21.30;70.90;;;;;;5028498;28;20494;-72
2023/08/14 10:12:58;;;;;;;4.47;1.90;;;21.30;70.50;;;;;;5030071;28;20084;-71
2023/08/14 10:15:35;;;;;;;4.75;1.80;;;21.30;70.40;;;;;;5034325;28;20511;-71
2023/08/14 10:18:08;;;;;;;4.73;1.90;;;21.40;69.50;;;;;;5028648;28;20054;-72
2023/08/14 10:20:37;;;;;;;4.80;1.70;;;21.40;70.50;;;;;;5028851;28;20046;-72
2023/08/14 10:23:07;;;;;;;6.18;2.30;;;21.40;71.00;;;;;;5010289;28;20686;-72
2023/08/14 10:25:36;;;;;;;6.95;2.15;;;21.50;71.10;;;;;;5009009;28;20057;-72
2023/08/14 10:28:05;;;;;;;5.43;2.00;;;21.50;70.20;;;;;;5009987;28;20059;-72
2023/08/14 10:30:35;;;;;;;4.40;1.83;;;21.60;70.10;;;;;;5010705;28;20169;-72
2023/08/14 10:33:03;;;;;;;5.63;1.92;;;21.70;69.90;;;;;;5009351;28;20051;-72
2023/08/14 10:35:43;;;;;;;7.07;1.70;;;21.70;69.20;;;;;;5011516;28;20057;-72
2023/08/14 10:38:10;;;;;;;5.20;1.63;;;21.70;68.30;;;;;;5015011;28;20176;-72
2023/08/14 10:40:52;;;;;;;4.07;1.83;;;21.80;67.90;;;;;;5009098;28;20078;-72
2023/08/14 10:43:24;;;;;;;5.17;1.80;;;21.90;68.30;;;;;;5013527;28;20550;-73
2023/08/14 10:45:53;;;;;;;7.18;2.03;;;21.90;68.90;;;;;;5030342;28;20247;-72
2023/08/14 10:48:21;;;;;;;5.50;1.80;;;22.00;68.70;;;;;;5011991;28;20057;-72
2023/08/14 10:50:58;;;;;;;5.25;1.77;;;22.10;68.00;;;;;;5029014;28;20073;-73
2023/08/14 10:53:27;;;;;;;5.47;1.75;;;22.10;67.80;;;;;;5028637;28;20062;-72
2023/08/14 10:55:54;;;;;;;5.90;2.07;;;22.20;67.90;;;;;;5037809;23;20058;-74
2023/08/14 10:58:47;;;;;;;5.47;1.80;;;22.20;67.60;;;;;;4985576;28;20061;-73
2023/08/14 11:01:17;;;;;;;6.07;1.90;;;22.20;67.60;;;;;;4961045;28;20103;-73
2023/08/14 11:04:05;;;;;;;5.63;1.95;;;22.20;67.50;;;;;;4950009;28;20054;-77
2023/08/14 11:07:08;;;;;;;4.63;1.77;;;22.30;67.80;;;;;;4949102;28;20062;-71
2023/08/14 11:09:37;;;;;;;5.00;1.70;;;22.30;67.40;;;;;;4893456;29;20067;-72
2023/08/14 11:12:06;;;;;;;5.25;1.50;;;22.30;67.10;;;;;;4937628;28;20051;-73
2023/08/14 11:14:38;;;;;;;4.72;1.60;;;22.40;66.10;;;;;;4949025;28;20044;-71
2023/08/14 11:17:07;;;;;;;5.43;1.70;;;22.40;65.80;;;;;;4953948;28;20839;-71
2023/08/14 11:19:38;;;;;;;6.18;1.60;;;22.50;66.10;;;;;;4963921;28;20078;-69
2023/08/14 11:22:06;;;;;;;9.23;1.60;;;22.50;65.90;;;;;;4963257;28;20059;-70
2023/08/14 11:24:33;;;;;;;4.50;1.60;;;22.50;65.60;;;;;;4968488;28;20806;-70
2023/08/14 11:27:00;;;;;;;5.35;1.60;;;22.50;65.10;;;;;;4958720;28;20186;-70
2023/08/14 11:29:27;;;;;;;4.22;1.50;;;22.50;64.40;;;;;;4956545;28;20062;-71
2023/08/14 11:31:55;;;;;;;4.97;1.55;;;22.60;64.40;;;;;;4956045;28;20050;-71
2023/08/14 11:34:24;;;;;;;5.43;1.57;;;22.60;64.30;;;;;;4964847;28;20059;-72
2023/08/14 11:36:56;;;;;;;5.82;1.60;;;22.60;64.80;;;;;;4951548;28;20573;-73
2023/08/14 11:39:23;;;;;;;6.20;1.73;;;22.70;65.40;;;;;;4966275;28;20056;-75
2023/08/14 11:41:50;;;;;;;6.03;1.83;;;22.70;65.10;;;;;;4960250;28;20051;-73
2023/08/14 11:44:18;;;;;;;5.75;1.75;;;22.70;64.80;;;;;;4957160;28;20087;-74
2023/08/14 11:46:45;;;;;;;4.50;1.70;;;22.80;64.60;;;;;;4932843;28;20058;-74
2023/08/14 11:49:12;;;;;;;4.57;1.42;;;22.80;64.40;;;;;;4948234;28;20611;-75
2023/08/14 11:51:42;;;;;;;5.60;1.80;;;22.90;64.30;;;;;;4953307;28;20048;-75
2023/08/14 11:54:10;;;;;;;5.90;1.80;;;22.90;64.30;;;;;;4954057;28;20052;-75
2023/08/14 11:56:37;;;;;;;6.07;1.90;;;23.00;63.80;;;;;;4958395;28;20139;-75
2023/08/14 11:59:05;;;;;;;5.00;1.67;;;23.00;64.00;;;;;;4958200;28;20048;-76
2023/08/14 12:01:36;;;;;;;6.57;2.00;;;23.10;63.90;;;;;;4955909;28;20051;-72
2023/08/14 12:04:04;;;;;;;4.18;1.90;;;23.10;63.50;;;;;;4951874;28;20054;-72
2023/08/14 12:06:31;;;;;;;4.45;1.80;;;23.20;63.60;;;;;;4958451;28;20080;-71
2023/08/14 12:09:00;;;;;;;6.53;1.80;;;23.20;63.80;;;;;;4956362;28;20058;-71
2023/08/14 12:11:29;;;;;;;6.23;1.83;;;23.30;63.40;;;;;;4957224;28;20056;-71
2023/08/14 12:13:56;;;;;;;6.78;2.08;;;23.30;63.10;;;;;;4934307;28;20178;-72
2023/08/14 12:16:24;;;;;;;4.97;1.73;;;23.40;63.70;;;;;;4948068;28;20094;-72
2023/08/14 12:18:51;;;;;;;5.03;1.85;;;23.50;64.10;;;;;;4948638;28;20055;-73
2023/08/14 12:21:18;;;;;;;7.65;2.20;;;23.50;64.10;;;;;;4949064;28;20948;-73
2023/08/14 12:23:47;;;;;;;5.63;1.93;;;23.60;64.60;;;;;;4951781;28;20195;-72
2023/08/14 12:26:15;;;;;;;5.18;1.90;;;23.70;64.10;;;;;;4958862;28;20939;-71
2023/08/14 12:28:43;;;;;;;5.78;1.70;;;23.80;63.70;;;;;;4961188;28;20091;-74
2023/08/14 12:31:13;;;;;;;5.13;2.10;;;23.80;63.10;;;;;;4948831;28;20054;-75
2023/08/14 12:33:41;;;;;;;5.50;2.05;;;23.90;63.20;;;;;;4956126;28;20047;-76
2023/08/14 12:36:10;;;;;;;5.83;1.90;;;23.90;62.70;;;;;;4959058;28;20074;-74
2023/08/14 12:38:37;;;;;;;5.85;2.20;;;24.00;62.70;;;;;;4964425;28;20158;-72
2023/08/14 12:41:04;;;;;;;5.28;1.67;;;24.00;63.00;;;;;;4957156;28;20067;-73
2023/08/14 12:43:33;;;;;;;5.38;2.00;;;24.10;63.60;;;;;;4962879;28;20051;-74
2023/08/14 12:46:00;;;;;;;4.30;1.80;;;24.20;62.80;;;;;;4963581;28;20146;-76
2023/08/14 12:48:27;;;;;;;5.53;1.80;;;24.30;62.10;;;;;;4959060;28;20051;-74
2023/08/14 12:50:55;;;;;;;4.53;1.80;;;24.40;60.50;;;;;;4956255;28;20114;-80
2023/08/14 12:53:22;;;;;;;7.25;2.33;;;24.40;60.70;;;;;;4949143;28;20066;-78